createdAt,value
2017-11-21T06:54:29.790Z,32
2017-11-21T06:55:39.201Z,68
2017-11-21T06:56:47.737Z,88
2017-11-21T06:57:56.266Z,96
2017-11-21T06:59:05.386Z,112
2017-11-21T07:00:13.921Z,116
2017-11-21T07:01:22.725Z,116
2017-11-21T07:02:31.532Z,120
2017-11-21T07:03:40.071Z,132
2017-11-21T07:04:48.882Z,136
2017-11-21T07:05:57.414Z,148
2017-11-21T07:07:05.953Z,140
2017-11-21T07:08:14.491Z,140
2017-11-21T07:09:23.301Z,152
2017-11-21T07:10:32.381Z,144
2017-11-21T07:11:40.921Z,140
2017-11-21T07:12:49.467Z,156
2017-11-21T07:13:58.278Z,160
2017-11-21T07:15:07.088Z,180
2017-11-21T07:16:16.168Z,180
2017-11-21T07:17:24.978Z,176
2017-11-21T07:18:33.520Z,188
2017-11-21T07:19:42.874Z,204
2017-11-21T07:20:51.684Z,224
2017-11-21T07:22:00.495Z,204
2017-11-21T07:23:09.038Z,228
2017-11-21T07:24:17.871Z,256
2017-11-21T07:25:26.700Z,260
2017-11-21T07:26:35.552Z,252
2017-11-21T07:27:44.094Z,324
2017-11-21T07:28:52.907Z,360
2017-11-21T07:30:01.456Z,404
2017-11-21T07:31:10.275Z,436
2017-11-21T07:32:19.369Z,352
2017-11-21T07:33:27.920Z,280
2017-11-21T07:34:36.733Z,296
2017-11-21T07:35:45.544Z,312
2017-11-21T07:36:54.358Z,376
2017-11-21T07:38:03.441Z,368
2017-11-21T07:39:12.253Z,416
2017-11-21T07:40:21.067Z,392
2017-11-21T07:41:29.886Z,460
2017-11-21T07:42:38.425Z,536
2017-11-21T07:43:47.508Z,500
2017-11-21T07:44:56.048Z,520
2017-11-21T07:46:04.888Z,548
2017-11-21T07:47:14.409Z,504
2017-11-21T07:48:23.308Z,512
2017-11-21T07:49:32.200Z,528
2017-11-21T07:50:40.754Z,552
2017-11-21T07:51:49.566Z,536
2017-11-21T07:52:58.920Z,500
2017-11-21T07:54:07.755Z,576
2017-11-21T07:55:16.890Z,492
2017-11-21T07:56:25.440Z,536
2017-11-21T07:57:34.586Z,500
2017-11-21T07:58:43.743Z,452
2017-11-21T07:59:52.625Z,468
2017-11-21T08:01:01.437Z,504
2017-11-21T08:02:10.536Z,520
2017-11-21T08:03:19.358Z,520
2017-11-21T08:04:28.172Z,548
2017-11-21T08:05:36.715Z,544
2017-11-21T08:06:45.261Z,576
2017-11-21T08:07:53.897Z,728
2017-11-21T08:09:02.712Z,952
2017-11-21T08:10:11.255Z,1008
2017-11-21T08:11:19.799Z,1036
2017-11-21T08:12:28.335Z,1028
2017-11-21T08:13:37.423Z,932
2017-11-21T08:14:45.955Z,936
2017-11-21T08:15:54.495Z,976
2017-11-21T08:17:03.038Z,944
2017-11-21T08:18:12.126Z,992
2017-11-21T08:19:20.672Z,1020
2017-11-21T08:20:29.761Z,964
2017-11-21T08:21:39.116Z,936
2017-11-21T08:22:47.930Z,684
2017-11-21T08:23:56.745Z,604
2017-11-21T08:25:05.828Z,620
2017-11-21T08:26:14.642Z,724
2017-11-21T08:27:23.185Z,772
2017-11-21T08:28:31.726Z,880
2017-11-21T08:29:40.552Z,1084
2017-11-21T08:30:49.651Z,1180
2017-11-21T08:31:58.458Z,1116
2017-11-21T08:33:07.158Z,936
2017-11-21T08:34:15.982Z,972
2017-11-21T08:35:24.799Z,888
2017-11-21T08:36:33.336Z,824
2017-11-21T08:37:41.888Z,760
2017-11-21T08:38:50.432Z,688
2017-11-21T08:39:59.323Z,772
2017-11-21T08:41:08.145Z,896
2017-11-21T08:42:16.979Z,1016
2017-11-21T08:43:25.940Z,1068
2017-11-21T08:44:34.761Z,1160
2017-11-21T08:45:43.303Z,1336
2017-11-21T08:46:52.119Z,1548
2017-11-21T08:48:00.936Z,1540
2017-11-21T08:49:09.754Z,1384
2017-11-21T08:50:18.569Z,1412
2017-11-21T08:51:27.383Z,1392
2017-11-21T08:52:36.190Z,1372
2017-11-21T08:53:44.849Z,1500
2017-11-21T08:54:53.501Z,1496
2017-11-21T08:56:02.313Z,1556
2017-11-21T08:57:10.852Z,1676
2017-11-21T08:58:19.676Z,1724
2017-11-21T08:59:28.497Z,1576
2017-11-21T09:00:37.042Z,1588
2017-11-21T09:01:45.584Z,1756
2017-11-21T09:02:54.677Z,2056
2017-11-21T09:04:03.501Z,2028
2017-11-21T09:05:12.323Z,2344
2017-11-21T09:06:21.148Z,2344
2017-11-21T09:07:29.707Z,2140
2017-11-21T09:08:38.251Z,2120
2017-11-21T09:09:47.066Z,2104
2017-11-21T09:10:55.810Z,2080
2017-11-21T09:12:04.627Z,2100
2017-11-21T09:13:13.447Z,1884
2017-11-21T09:14:22.969Z,1940
2017-11-21T09:15:31.788Z,1804
2017-11-21T09:16:40.611Z,1716
2017-11-21T09:17:49.712Z,1800
2017-11-21T09:18:58.528Z,1612
2017-11-21T09:20:07.337Z,1488
2017-11-21T09:21:15.878Z,1336
2017-11-21T09:22:24.690Z,1340
2017-11-21T09:23:33.240Z,1624
2017-11-21T09:24:42.370Z,1880
2017-11-21T09:25:50.882Z,1900
2017-11-21T09:26:59.698Z,1868
2017-11-21T09:28:08.551Z,2036
2017-11-21T09:29:17.367Z,1864
2017-11-21T09:30:26.189Z,1896
2017-11-21T09:31:35.542Z,1772
2017-11-21T09:32:45.202Z,1968
2017-11-21T09:33:54.009Z,1928
2017-11-21T09:35:02.551Z,1892
2017-11-21T09:36:11.091Z,1964
2017-11-21T09:37:20.174Z,2264
2017-11-21T09:38:28.997Z,2420
2017-11-21T09:39:38.093Z,2800
2017-11-21T09:40:46.628Z,2800
2017-11-21T09:41:55.442Z,2852
2017-11-21T09:43:04.277Z,2828
2017-11-21T09:44:13.134Z,2636
2017-11-21T09:45:21.682Z,2464
2017-11-21T09:46:30.779Z,2672
2017-11-21T09:47:39.312Z,2104
2017-11-21T09:48:47.857Z,1932
2017-11-21T09:49:56.672Z,2140
2017-11-21T09:51:05.778Z,2440
2017-11-21T09:52:14.588Z,2644
2017-11-21T09:53:23.679Z,2660
2017-11-21T09:54:32.222Z,2972
2017-11-21T09:55:40.766Z,2932
2017-11-21T09:56:49.677Z,2964
2017-11-21T09:57:58.223Z,3016
2017-11-21T09:59:07.046Z,2864
2017-11-21T10:00:15.850Z,3360
2017-11-21T10:01:24.397Z,3124
2017-11-21T10:02:33.214Z,3476
2017-11-21T10:03:42.301Z,3752
2017-11-21T10:04:50.839Z,4584
2017-11-21T10:05:59.658Z,4172
2017-11-21T10:07:08.472Z,4052
2017-11-21T10:08:17.559Z,4088
2017-11-21T10:09:26.369Z,3628
2017-11-21T10:10:34.911Z,3008
2017-11-21T10:11:43.454Z,2632
2017-11-21T10:12:52.268Z,2536
2017-11-21T10:14:00.812Z,2304
2017-11-21T10:15:10.456Z,2144
2017-11-21T10:16:19.550Z,2112
2017-11-21T10:17:28.094Z,2096
2017-11-21T10:18:36.644Z,2196
2017-11-21T10:19:46.005Z,2624
2017-11-21T10:20:54.816Z,2284
2017-11-21T10:22:03.629Z,2196
2017-11-21T10:23:12.441Z,2472
2017-11-21T10:24:21.256Z,2480
2017-11-21T10:25:29.798Z,2796
2017-11-21T10:26:38.883Z,2500
2017-11-21T10:27:47.701Z,2764
2017-11-21T10:28:56.247Z,2612
2017-11-21T10:30:05.072Z,2728
2017-11-21T10:31:13.882Z,3548
2017-11-21T10:32:22.701Z,2748
2017-11-21T10:33:31.244Z,2732
2017-11-21T10:34:39.786Z,2472
2017-11-21T10:35:48.872Z,2560
2017-11-21T10:36:57.688Z,2540
2017-11-21T10:38:06.229Z,2332
2017-11-21T10:39:14.780Z,1944
2017-11-21T10:40:23.871Z,2084
2017-11-21T10:41:32.960Z,2420
2017-11-21T10:42:41.767Z,2252
2017-11-21T10:43:50.582Z,2156
2017-11-21T10:44:59.400Z,1688
2017-11-21T10:46:07.960Z,1928
2017-11-21T10:47:16.481Z,2076
2017-11-21T10:48:25.302Z,1796
2017-11-21T10:49:34.383Z,1664
2017-11-21T10:50:43.467Z,1872
2017-11-21T10:51:52.010Z,2172
2017-11-21T10:53:00.549Z,2216
2017-11-21T10:54:09.909Z,2684
2017-11-21T10:55:18.453Z,2300
2017-11-21T10:56:30.568Z,2068
2017-11-21T10:57:39.929Z,1924
2017-11-21T10:58:49.024Z,2084
2017-11-21T10:59:57.843Z,1868
2017-11-21T11:01:06.656Z,2364
2017-11-21T11:02:15.472Z,2484
2017-11-21T11:03:24.290Z,2628
2017-11-21T11:04:33.118Z,3108
2017-11-21T11:05:41.932Z,2608
2017-11-21T11:06:50.767Z,2588
2017-11-21T11:07:59.581Z,2436
2017-11-21T11:09:08.665Z,2516
2017-11-21T11:10:17.749Z,2068
2017-11-21T11:11:26.843Z,2248
2017-11-21T11:12:35.387Z,1944
2017-11-21T11:13:44.476Z,1724
2017-11-21T11:14:53.016Z,1564
2017-11-21T11:16:01.559Z,1648
2017-11-21T11:17:10.157Z,1720
2017-11-21T11:18:18.978Z,1580
2017-11-21T11:19:27.529Z,1592
2017-11-21T11:20:36.629Z,1872
2017-11-21T11:21:45.468Z,1800
2017-11-21T11:22:54.301Z,1504
2017-11-21T11:24:02.852Z,1592
2017-11-21T11:25:11.671Z,1504
2017-11-21T11:26:20.231Z,1488
2017-11-21T11:27:29.601Z,1500
2017-11-21T11:28:38.158Z,1460
2017-11-21T11:29:46.710Z,1616
2017-11-21T11:30:55.811Z,1728
2017-11-21T11:32:05.436Z,1932
2017-11-21T11:33:14.257Z,1832
2017-11-21T11:34:22.804Z,1976
2017-11-21T11:35:31.891Z,1880
2017-11-21T11:36:40.434Z,2020
2017-11-21T11:37:49.529Z,1776
2017-11-21T11:38:58.072Z,2328
2017-11-21T11:40:06.885Z,2004
2017-11-21T11:41:15.707Z,2212
2017-11-21T11:42:24.526Z,2276
2017-11-21T11:43:33.343Z,2160
2017-11-21T11:44:42.155Z,2140
2017-11-21T11:45:50.695Z,2072
2017-11-21T11:46:59.234Z,1828
2017-11-21T11:48:07.797Z,1824
2017-11-21T11:49:16.343Z,1652
2017-11-21T11:50:25.459Z,1488
2017-11-21T11:51:34.550Z,1736
2017-11-21T11:52:43.090Z,1776
2017-11-21T11:53:51.901Z,1872
2017-11-21T11:55:00.724Z,1656
2017-11-21T11:56:09.351Z,1664
2017-11-21T11:57:18.218Z,1488
2017-11-21T11:58:26.781Z,1756
2017-11-21T11:59:35.875Z,1756
2017-11-21T12:00:44.448Z,1700
2017-11-21T12:01:53.249Z,1412
2017-11-21T12:03:02.065Z,1364
2017-11-21T12:04:10.882Z,1324
2017-11-21T12:05:19.700Z,1276
2017-11-21T12:06:29.157Z,1180
2017-11-21T12:07:37.706Z,1096
2017-11-21T12:08:46.824Z,988
2017-11-21T12:09:55.774Z,1252
2017-11-21T12:11:04.342Z,1120
2017-11-21T12:12:13.391Z,1140
2017-11-21T12:13:22.342Z,1424
2017-11-21T12:14:30.891Z,1536
2017-11-21T12:15:39.704Z,1420
2017-11-21T12:16:48.546Z,1256
2017-11-21T12:17:57.085Z,1640
2017-11-21T12:19:05.628Z,1448
2017-11-21T12:20:14.442Z,1312
2017-11-21T12:21:22.988Z,1372
2017-11-21T12:22:31.934Z,1440
2017-11-21T12:23:41.380Z,1384
2017-11-21T12:24:50.330Z,1416
2017-11-21T12:25:59.248Z,1164
2017-11-21T12:27:08.296Z,1136
2017-11-21T12:28:17.064Z,1036
2017-11-21T12:29:27.514Z,1164
2017-11-21T12:30:38.859Z,1240
2017-11-21T12:31:48.404Z,1252
2017-11-21T12:32:57.089Z,1088
2017-11-21T12:34:06.218Z,1296
2017-11-21T12:35:14.826Z,1348
2017-11-21T12:36:24.062Z,1492
2017-11-21T12:37:32.990Z,1496
2017-11-21T12:38:41.811Z,1844
2017-11-21T12:39:51.167Z,2164
2017-11-21T12:41:00.192Z,2136
2017-11-21T12:42:10.680Z,1784
2017-11-21T12:43:20.050Z,1796
2017-11-21T12:44:28.987Z,1552
2017-11-21T12:45:37.793Z,1296
2017-11-21T12:46:46.679Z,1128
2017-11-21T12:47:55.536Z,1060
2017-11-21T12:49:04.104Z,1136
2017-11-21T12:50:12.919Z,1084
2017-11-21T12:51:21.889Z,1048
2017-11-21T12:52:30.478Z,956
2017-11-21T12:53:39.354Z,860
2017-11-21T12:54:48.169Z,824
2017-11-21T12:55:56.985Z,832
2017-11-21T12:57:06.086Z,832
2017-11-21T12:58:15.172Z,804
2017-11-21T12:59:24.258Z,916
2017-11-21T13:00:33.352Z,1112
2017-11-21T13:01:42.167Z,1056
2017-11-21T13:02:50.724Z,1108
2017-11-21T13:03:59.271Z,1100
2017-11-21T13:05:08.360Z,1264
2017-11-21T13:06:17.176Z,1136
2017-11-21T13:07:25.733Z,1132
2017-11-21T13:08:34.850Z,1072
2017-11-21T13:09:43.388Z,860
2017-11-21T13:10:52.474Z,736
2017-11-21T13:12:01.017Z,800
2017-11-21T13:13:09.824Z,728
2017-11-21T13:14:18.365Z,796
2017-11-21T13:15:27.443Z,820
2017-11-21T13:16:35.983Z,824
2017-11-21T13:17:45.094Z,724
2017-11-21T13:18:54.181Z,644
2017-11-21T13:20:02.998Z,684
2017-11-21T13:21:11.811Z,852
2017-11-21T13:22:20.353Z,804
2017-11-21T13:23:28.903Z,924
2017-11-21T13:24:37.996Z,848
2017-11-21T13:25:46.825Z,816
2017-11-21T13:26:55.370Z,916
2017-11-21T13:28:05.003Z,820
2017-11-21T13:29:14.104Z,868
2017-11-21T13:30:23.190Z,624
2017-11-21T13:31:32.013Z,624
2017-11-21T13:32:41.138Z,628
2017-11-21T13:33:49.688Z,624
2017-11-21T13:34:58.236Z,572
2017-11-21T13:36:07.328Z,476
2017-11-21T13:37:16.197Z,560
2017-11-21T13:38:25.028Z,572
2017-11-21T13:39:33.843Z,612
2017-11-21T13:40:42.942Z,576
2017-11-21T13:41:51.766Z,656
2017-11-21T13:43:01.410Z,608
2017-11-21T13:44:10.084Z,700
2017-11-21T13:45:18.930Z,604
2017-11-21T13:46:27.476Z,640
2017-11-21T13:47:36.569Z,824
2017-11-21T13:48:45.654Z,800
2017-11-21T13:49:55.092Z,532
2017-11-21T13:51:03.632Z,624
2017-11-21T13:52:12.173Z,652
2017-11-21T13:53:20.999Z,808
2017-11-21T13:54:30.083Z,828
2017-11-21T13:55:38.895Z,796
2017-11-21T13:56:47.440Z,812
2017-11-21T13:57:56.256Z,608
2017-11-21T13:59:05.071Z,520
2017-11-21T14:00:14.341Z,448
2017-11-21T14:01:23.505Z,488
2017-11-21T14:02:32.864Z,424
2017-11-21T14:03:41.700Z,416
2017-11-21T14:04:51.013Z,424
2017-11-21T14:05:59.826Z,472
2017-11-21T14:07:08.363Z,428
2017-11-21T14:08:16.911Z,360
2017-11-21T14:09:25.452Z,368
2017-11-21T14:10:34.264Z,384
2017-11-21T14:11:42.854Z,360
2017-11-21T14:12:51.398Z,352
2017-11-21T14:14:00.209Z,392
2017-11-21T14:15:08.751Z,408
2017-11-21T14:16:17.293Z,392
2017-11-21T14:17:26.694Z,384
2017-11-21T14:18:35.510Z,380
2017-11-21T14:19:44.048Z,372
2017-11-21T14:20:52.591Z,360
2017-11-21T14:22:01.191Z,368
2017-11-21T14:23:10.002Z,408
2017-11-21T14:24:18.865Z,384
2017-11-21T14:25:27.680Z,420
2017-11-21T14:26:36.493Z,392
2017-11-21T14:27:45.336Z,404
2017-11-21T14:28:54.153Z,328
2017-11-21T14:30:03.075Z,360
2017-11-21T14:31:11.924Z,360
2017-11-21T14:32:20.743Z,340
2017-11-21T14:33:29.828Z,328
2017-11-21T14:34:39.205Z,300
2017-11-21T14:35:48.354Z,316
2017-11-21T14:36:57.187Z,316
2017-11-21T14:38:06.018Z,328
2017-11-21T14:39:15.124Z,268
2017-11-21T14:40:23.944Z,308
2017-11-21T14:41:32.491Z,276
2017-11-21T14:42:41.581Z,276
2017-11-21T14:43:50.124Z,300
2017-11-21T14:44:58.965Z,312
2017-11-21T14:46:07.501Z,340
2017-11-21T14:47:16.043Z,304
2017-11-21T14:48:24.687Z,300
2017-11-21T14:49:33.227Z,268
2017-11-21T14:50:42.308Z,268
2017-11-21T14:51:51.590Z,264
2017-11-21T14:53:00.675Z,268
2017-11-21T14:54:09.216Z,276
2017-11-21T14:55:18.027Z,268
2017-11-21T14:56:26.839Z,268
2017-11-21T14:57:35.406Z,264
2017-11-21T14:58:44.268Z,228
2017-11-21T14:59:53.112Z,256
2017-11-21T15:01:01.652Z,260
2017-11-21T15:02:10.467Z,236
2017-11-21T15:03:19.292Z,240
2017-11-21T15:04:28.123Z,256
2017-11-21T15:05:36.675Z,256
2017-11-21T15:06:45.497Z,244
2017-11-21T15:07:54.318Z,216
2017-11-21T15:09:03.693Z,240
2017-11-21T15:10:12.506Z,228
2017-11-21T15:11:21.873Z,232
2017-11-21T15:12:30.968Z,192
2017-11-21T15:13:39.521Z,196
2017-11-21T15:14:48.380Z,176
2017-11-21T15:15:57.207Z,176
2017-11-21T15:17:05.748Z,164
2017-11-21T15:18:14.844Z,160
2017-11-21T15:19:23.657Z,164
2017-11-21T15:20:32.481Z,160
2017-11-21T15:21:41.027Z,172
2017-11-21T15:22:49.574Z,156
2017-11-21T15:23:58.120Z,152
2017-11-21T15:25:06.943Z,156
2017-11-21T15:26:15.486Z,152
2017-11-21T15:27:24.028Z,140
2017-11-21T15:28:32.566Z,124
2017-11-21T15:29:41.395Z,132
2017-11-21T15:30:50.475Z,124
2017-11-21T15:31:59.619Z,116
2017-11-21T15:33:08.158Z,116
2017-11-21T15:34:16.985Z,108
2017-11-21T15:35:25.805Z,108
2017-11-21T15:36:34.344Z,108
2017-11-21T15:37:42.894Z,100
2017-11-21T15:38:51.483Z,92
2017-11-21T15:40:00.065Z,88
2017-11-21T15:41:08.849Z,88
2017-11-21T15:42:17.809Z,88
2017-11-21T15:43:26.640Z,84
2017-11-21T15:44:35.453Z,84
2017-11-21T15:45:44.702Z,80
2017-11-21T15:46:53.438Z,80
2017-11-21T15:48:02.450Z,80
2017-11-21T15:49:11.341Z,76
2017-11-21T15:50:20.427Z,80
2017-11-21T15:51:29.247Z,80
2017-11-21T15:52:38.066Z,72
2017-11-21T15:53:46.607Z,76
2017-11-21T15:54:55.801Z,76
2017-11-21T15:56:04.612Z,72
2017-11-21T15:57:13.693Z,72
2017-11-21T15:58:22.502Z,72
2017-11-21T15:59:31.623Z,72
2017-11-21T16:00:41.066Z,72
2017-11-21T16:01:50.430Z,72
2017-11-21T16:02:59.251Z,72
2017-11-21T16:04:07.793Z,72
2017-11-21T16:05:16.339Z,72
2017-11-21T16:06:24.891Z,72
2017-11-21T16:07:33.972Z,72
2017-11-21T16:08:42.790Z,72
2017-11-21T16:09:51.601Z,68
2017-11-21T16:11:00.479Z,72
2017-11-21T16:12:09.294Z,72
2017-11-21T16:13:18.189Z,72
2017-11-21T16:14:27.134Z,72
2017-11-21T16:15:35.960Z,72
2017-11-21T16:16:44.780Z,72
2017-11-21T16:17:53.935Z,72
2017-11-21T16:19:02.770Z,72
2017-11-21T16:20:11.313Z,68
2017-11-21T16:21:19.877Z,72
2017-11-21T16:22:28.687Z,72
2017-11-21T16:23:37.230Z,72
2017-11-21T16:24:45.777Z,72
2017-11-21T16:25:54.594Z,72
2017-11-21T16:27:03.436Z,72
2017-11-21T16:28:11.982Z,72
2017-11-21T16:29:20.526Z,72
2017-11-21T16:30:29.074Z,72
2017-11-21T16:31:37.909Z,72
2017-11-21T16:32:46.717Z,72
2017-11-21T16:33:55.258Z,72
2017-11-21T16:35:04.074Z,72
2017-11-21T16:36:12.616Z,72
2017-11-21T16:37:21.465Z,72
2017-11-21T16:38:29.976Z,72
2017-11-21T16:39:38.516Z,72
2017-11-21T16:40:47.603Z,72
2017-11-21T16:41:56.416Z,72
2017-11-21T16:43:04.958Z,72
2017-11-21T16:44:14.042Z,72
2017-11-21T16:45:22.853Z,72
2017-11-21T16:46:31.945Z,72
2017-11-21T16:47:40.489Z,72
2017-11-21T16:48:49.844Z,72
2017-11-21T16:49:58.658Z,68
2017-11-21T16:51:07.468Z,72
2017-11-21T16:52:16.291Z,72
2017-11-21T16:53:24.855Z,72
2017-11-21T16:54:33.421Z,72
2017-11-21T16:55:42.241Z,72
2017-11-21T16:56:50.785Z,72
2017-11-21T16:57:59.869Z,72
2017-11-21T16:59:08.956Z,72
2017-11-21T17:00:20.578Z,72
2017-11-21T17:01:29.116Z,72
2017-11-21T17:02:37.658Z,72
2017-11-21T17:03:46.741Z,72
2017-11-21T17:04:55.562Z,72
2017-11-21T17:06:04.377Z,72
2017-11-21T17:07:13.185Z,72
2017-11-21T17:08:21.726Z,72
2017-11-21T17:09:30.270Z,72
2017-11-21T17:10:39.634Z,72
2017-11-21T17:11:48.171Z,68
2017-11-21T17:12:56.990Z,72
2017-11-21T17:14:05.530Z,68
2017-11-21T17:15:14.350Z,68
2017-11-21T17:16:23.745Z,72
2017-11-21T17:17:32.554Z,72
2017-11-21T17:18:41.098Z,68
2017-11-21T17:19:49.911Z,68
2017-11-21T17:20:59.001Z,72
2017-11-21T17:22:08.087Z,68
2017-11-21T17:23:17.161Z,72
2017-11-21T17:24:26.243Z,0
2017-11-21T17:25:35.061Z,0
2017-11-21T17:26:43.872Z,0
2017-11-21T17:27:52.685Z,0
2017-11-21T17:29:01.305Z,0
2017-11-21T17:30:10.405Z,0
2017-11-21T17:31:19.487Z,0
2017-11-21T17:32:28.298Z,0
2017-11-21T17:33:37.122Z,0
2017-11-21T17:34:45.929Z,0
2017-11-21T17:35:55.010Z,0
2017-11-21T17:37:03.549Z,0
2017-11-21T17:38:12.359Z,0
2017-11-21T17:39:21.169Z,0
2017-11-21T17:40:29.980Z,0
2017-11-21T17:41:38.523Z,0
2017-11-21T17:42:47.332Z,0
2017-11-21T17:43:56.418Z,0
2017-11-21T17:45:05.234Z,0
2017-11-21T17:46:14.054Z,0
2017-11-21T17:47:23.137Z,0
2017-11-21T17:48:31.950Z,0
2017-11-21T17:49:41.047Z,0
2017-11-21T17:50:49.589Z,0
2017-11-21T17:51:58.449Z,0
2017-11-21T17:53:07.529Z,0
2017-11-21T17:54:16.073Z,0
2017-11-21T17:55:24.639Z,0
2017-11-21T17:56:33.153Z,0
2017-11-21T17:57:42.238Z,0
2017-11-21T17:58:50.782Z,0
2017-11-21T17:59:59.601Z,0
2017-11-21T18:01:08.160Z,0
2017-11-21T18:02:16.956Z,0
2017-11-21T18:03:26.043Z,0
2017-11-21T18:04:34.862Z,0
2017-11-21T18:05:43.652Z,0
2017-11-21T18:06:52.463Z,0
2017-11-21T18:08:01.026Z,0
2017-11-21T18:09:09.565Z,0
2017-11-21T18:10:18.106Z,0
2017-11-21T18:11:26.650Z,0
2017-11-21T18:12:35.187Z,0
2017-11-21T18:13:44.016Z,0
2017-11-21T18:14:52.813Z,0
2017-11-21T18:16:01.356Z,0
2017-11-21T18:17:10.436Z,0
2017-11-21T18:18:18.977Z,0
2017-11-21T18:19:27.808Z,0
2017-11-21T18:20:36.620Z,0
2017-11-21T18:21:45.159Z,0
2017-11-21T18:22:53.698Z,0
2017-11-21T18:24:02.509Z,0
2017-11-21T18:25:11.328Z,0
2017-11-21T18:26:19.871Z,0
2017-11-21T18:27:28.681Z,0
2017-11-21T18:28:37.760Z,0
2017-11-21T18:29:46.806Z,0
2017-11-21T18:30:55.618Z,0
2017-11-21T18:32:04.155Z,0
2017-11-21T18:33:12.696Z,0
2017-11-21T18:34:21.775Z,0
2017-11-21T18:35:30.588Z,0
2017-11-21T18:36:39.410Z,0
2017-11-21T18:37:48.222Z,0
2017-11-21T18:38:56.768Z,0
2017-11-21T18:40:05.866Z,0
2017-11-21T18:41:14.676Z,0
2017-11-21T18:42:23.214Z,0
2017-11-21T18:43:31.758Z,0
2017-11-21T18:44:40.296Z,0
2017-11-21T18:45:49.661Z,0
2017-11-21T18:46:58.200Z,0
2017-11-21T18:48:06.741Z,0
2017-11-21T18:49:16.101Z,0
2017-11-21T18:50:25.183Z,0
2017-11-21T18:51:33.992Z,0
2017-11-21T18:52:42.806Z,0
2017-11-21T18:53:51.357Z,0
2017-11-21T18:55:00.175Z,0
2017-11-21T18:56:08.718Z,0
2017-11-21T18:57:17.544Z,0
2017-11-21T18:58:26.629Z,0
2017-11-21T18:59:35.227Z,0
2017-11-21T19:00:44.048Z,0
2017-11-21T19:01:53.126Z,0
2017-11-21T19:03:01.944Z,0
2017-11-21T19:04:10.770Z,0
2017-11-21T19:05:19.887Z,0
2017-11-21T19:06:28.438Z,0
2017-11-21T19:07:36.974Z,0
2017-11-21T19:08:45.515Z,0
2017-11-21T19:09:54.329Z,0
2017-11-21T19:11:02.968Z,0
2017-11-21T19:12:11.508Z,0
2017-11-21T19:13:20.045Z,0
2017-11-21T19:14:28.596Z,0
2017-11-21T19:15:37.418Z,0
2017-11-21T19:16:45.955Z,0
2017-11-21T19:17:55.315Z,0
2017-11-21T19:19:03.855Z,0
2017-11-21T19:20:12.934Z,0
2017-11-21T19:21:21.874Z,0
2017-11-21T19:22:30.952Z,0
2017-11-21T19:23:40.036Z,0
2017-11-21T19:24:48.575Z,0
2017-11-21T19:25:57.390Z,0
2017-11-21T19:27:06.208Z,0
2017-11-21T19:28:15.296Z,0
2017-11-21T19:29:24.378Z,0
2017-11-21T19:30:33.737Z,0
2017-11-21T19:31:42.815Z,0
2017-11-21T19:32:51.629Z,0
2017-11-21T19:34:00.172Z,0
2017-11-21T19:35:08.994Z,0
2017-11-21T19:36:17.531Z,0
2017-11-21T19:37:26.068Z,0
2017-11-21T19:38:35.144Z,0
2017-11-21T19:39:43.690Z,0
2017-11-21T19:40:52.776Z,0
2017-11-21T19:42:01.319Z,0
2017-11-21T19:43:10.397Z,0
2017-11-21T19:44:19.360Z,0
2017-11-21T19:45:28.454Z,0
2017-11-21T19:46:37.345Z,0
2017-11-21T19:47:45.917Z,0
2017-11-21T19:48:54.806Z,0
2017-11-21T19:50:04.181Z,0
2017-11-21T19:51:13.355Z,0
2017-11-21T19:52:21.942Z,0
2017-11-21T19:53:30.747Z,0
2017-11-21T19:54:39.572Z,0
2017-11-21T19:55:48.387Z,0
2017-11-21T19:56:57.204Z,0
2017-11-21T19:58:05.747Z,0
2017-11-21T19:59:14.556Z,0
2017-11-21T20:00:23.368Z,0
2017-11-21T20:01:31.910Z,0
2017-11-21T20:02:41.059Z,0
2017-11-21T20:03:50.148Z,0
2017-11-21T20:04:58.958Z,0
2017-11-21T20:06:08.061Z,0
2017-11-21T20:07:16.600Z,0
2017-11-21T20:08:25.683Z,0
2017-11-21T20:09:34.225Z,0
2017-11-21T20:10:43.046Z,0
2017-11-21T20:11:51.860Z,0
2017-11-21T20:13:00.399Z,0
2017-11-21T20:14:09.485Z,0
2017-11-21T20:15:18.025Z,0
2017-11-21T20:16:26.837Z,0
2017-11-21T20:17:36.185Z,0
2017-11-21T20:18:45.542Z,0
2017-11-21T20:19:54.385Z,0
2017-11-21T20:21:02.923Z,0
2017-11-21T20:22:11.737Z,0
2017-11-21T20:23:20.827Z,0
2017-11-21T20:24:29.641Z,0
2017-11-21T20:25:38.185Z,0
2017-11-21T20:26:46.722Z,0
2017-11-21T20:27:55.534Z,0
2017-11-21T20:29:04.364Z,0
2017-11-21T20:30:13.179Z,0
2017-11-21T20:31:21.753Z,0
2017-11-21T20:32:30.296Z,0
2017-11-21T20:33:39.110Z,0
2017-11-21T20:34:47.917Z,0
2017-11-21T20:35:57.004Z,0
2017-11-21T20:37:05.818Z,0
2017-11-21T20:38:14.366Z,0
2017-11-21T20:39:23.176Z,0
2017-11-21T20:40:31.988Z,0
2017-11-21T20:41:40.528Z,0
2017-11-21T20:42:49.615Z,0
2017-11-21T20:43:58.432Z,0
2017-11-21T20:45:06.972Z,0
2017-11-21T20:46:15.844Z,0
2017-11-21T20:47:24.938Z,0
2017-11-21T20:48:33.480Z,0
2017-11-21T20:49:42.291Z,0
2017-11-21T20:50:50.827Z,0
2017-11-21T20:51:59.366Z,0
2017-11-21T20:53:07.904Z,0
2017-11-21T20:54:16.715Z,0
2017-11-21T20:55:25.529Z,0
2017-11-21T20:56:34.349Z,0
2017-11-21T20:57:43.161Z,0
2017-11-21T20:58:51.972Z,0
2017-11-21T21:00:00.511Z,0
2017-11-21T21:01:09.328Z,0
2017-11-21T21:02:18.134Z,0
2017-11-21T21:03:26.944Z,0
2017-11-21T21:04:35.751Z,0
2017-11-21T21:05:44.565Z,0
2017-11-21T21:06:53.379Z,0
2017-11-21T21:08:01.923Z,0
2017-11-21T21:09:10.466Z,0
2017-11-21T21:10:19.275Z,0
2017-11-21T21:11:28.088Z,0
2017-11-21T21:12:37.180Z,0
2017-11-21T21:13:45.992Z,0
2017-11-21T21:14:55.076Z,0
2017-11-21T21:16:03.615Z,0
2017-11-21T21:17:12.156Z,0
2017-11-21T21:18:20.698Z,0
2017-11-21T21:19:29.292Z,0
2017-11-21T21:20:38.020Z,0
2017-11-21T21:21:46.863Z,0
2017-11-21T21:22:56.004Z,0
2017-11-21T21:24:04.806Z,0
2017-11-21T21:25:13.883Z,0
2017-11-21T21:26:22.701Z,0
2017-11-21T21:27:31.241Z,0
2017-11-21T21:28:40.101Z,0
2017-11-21T21:29:48.647Z,0
2017-11-21T21:30:57.469Z,0
2017-11-21T21:32:06.555Z,0
2017-11-21T21:33:15.092Z,0
2017-11-21T21:34:23.911Z,0
2017-11-21T21:35:32.998Z,0
2017-11-21T21:36:41.540Z,0
2017-11-21T21:37:50.624Z,0
2017-11-21T21:38:59.434Z,0
2017-11-21T21:40:07.977Z,0
2017-11-21T21:41:16.520Z,0
2017-11-21T21:42:25.606Z,0
2017-11-21T21:43:34.413Z,0
2017-11-21T21:44:43.228Z,0
2017-11-21T21:45:52.044Z,0
2017-11-21T21:47:01.130Z,0
2017-11-21T21:48:09.670Z,0
2017-11-21T21:49:18.484Z,0
2017-11-21T21:50:27.306Z,0
2017-11-21T21:51:36.115Z,0
2017-11-21T21:52:44.927Z,0
2017-11-21T21:53:53.749Z,0
2017-11-21T21:55:02.842Z,0
2017-11-21T21:56:11.381Z,0
2017-11-21T21:57:20.193Z,0
2017-11-21T21:58:28.733Z,0
2017-11-21T21:59:37.271Z,0
2017-11-21T22:00:46.641Z,0
2017-11-21T22:01:55.999Z,0
2017-11-21T22:03:04.828Z,0
2017-11-21T22:04:13.626Z,0
2017-11-21T22:05:22.433Z,0
2017-11-21T22:06:30.979Z,0
2017-11-21T22:07:39.521Z,0
2017-11-21T22:08:48.883Z,0
2017-11-21T22:09:57.694Z,0
2017-11-21T22:11:06.503Z,0
2017-11-21T22:12:15.042Z,0
2017-11-21T22:13:23.859Z,0
2017-11-21T22:14:32.696Z,0
2017-11-21T22:15:41.488Z,0
2017-11-21T22:16:50.024Z,0
2017-11-21T22:17:58.563Z,0
2017-11-21T22:19:08.202Z,0
2017-11-21T22:20:17.015Z,0
2017-11-21T22:21:25.564Z,0
2017-11-21T22:22:34.653Z,0
2017-11-21T22:23:43.193Z,0
2017-11-21T22:24:51.734Z,0
2017-11-21T22:26:01.094Z,0
2017-11-21T22:27:09.631Z,0
2017-11-21T22:28:18.175Z,0
2017-11-21T22:29:26.985Z,0
2017-11-21T22:30:36.072Z,0
2017-11-21T22:31:44.615Z,0
2017-11-21T22:32:53.697Z,0
2017-11-21T22:34:03.051Z,0
2017-11-21T22:35:12.412Z,0
2017-11-21T22:36:20.952Z,0
2017-11-21T22:37:30.028Z,0
2017-11-21T22:38:38.568Z,0
2017-11-21T22:39:47.647Z,0
2017-11-21T22:40:56.456Z,0
2017-11-21T22:42:04.999Z,0
2017-11-21T22:43:13.816Z,0
2017-11-21T22:44:22.353Z,0
2017-11-21T22:45:31.173Z,0
2017-11-21T22:46:40.264Z,0
2017-11-21T22:47:48.798Z,0
2017-11-21T22:48:57.339Z,0
2017-11-21T22:50:06.437Z,0
2017-11-21T22:51:15.248Z,0
2017-11-21T22:52:23.785Z,0
2017-11-21T22:53:32.871Z,0
2017-11-21T22:54:41.951Z,0
2017-11-21T22:55:51.318Z,0
2017-11-21T22:56:59.860Z,0
2017-11-21T22:58:08.672Z,0
2017-11-21T22:59:17.211Z,0